Time;durP1;ratioP1;P1;durP2;ratioP2;P2;SDS_P1;SDS_P2;PMS_P1;PMS_P2;Temp;Humidity;BMP_temperature;BMP_pressure;BME280_temperature;BME280_humidity;BME280_pressure;Samples;Min_cycle;Max_cycle;Signal;HPM_P1;HPM_P2
2023/09/15 00:01:32;;;;;;;9.27;5.38;;;12.00;99.90;;;;;;5088338;28;20054;-72
2023/09/15 00:04:03;;;;;;;8.32;5.00;;;12.10;99.90;;;;;;5089941;28;20047;-71
2023/09/15 00:06:29;;;;;;;9.15;5.05;;;12.10;99.90;;;;;;5088802;28;20111;-72
2023/09/15 00:08:55;;;;;;;9.68;5.03;;;12.10;99.90;;;;;;5089134;28;20032;-72
2023/09/15 00:11:22;;;;;;;13.50;5.55;;;12.00;99.90;;;;;;5087834;28;20028;-73
2023/09/15 00:13:48;;;;;;;10.43;5.50;;;11.90;99.90;;;;;;5090466;28;20120;-73
2023/09/15 00:16:13;;;;;;;11.63;5.43;;;11.80;99.90;;;;;;5086878;28;20107;-73
2023/09/15 00:18:39;;;;;;;8.98;5.13;;;11.80;99.90;;;;;;5088756;28;20035;-73
2023/09/15 00:21:05;;;;;;;9.55;4.90;;;11.80;99.90;;;;;;5088463;28;20028;-73
2023/09/15 00:23:31;;;;;;;10.10;5.43;;;11.70;99.90;;;;;;5090152;28;20415;-72
2023/09/15 00:25:59;;;;;;;11.07;5.50;;;11.60;99.90;;;;;;5088807;28;20527;-71
2023/09/15 00:28:25;;;;;;;11.05;5.25;;;11.70;99.90;;;;;;5088638;28;20052;-73
2023/09/15 00:30:51;;;;;;;8.07;5.18;;;11.70;99.90;;;;;;5086621;28;20113;-72
2023/09/15 00:33:17;;;;;;;9.38;5.45;;;11.70;99.90;;;;;;5084786;28;20598;-73
2023/09/15 00:35:43;;;;;;;12.63;6.03;;;11.70;99.90;;;;;;5085852;28;20035;-73
2023/09/15 00:38:09;;;;;;;9.90;5.57;;;11.70;99.90;;;;;;5086992;28;20024;-73
2023/09/15 00:40:35;;;;;;;13.30;5.88;;;11.70;99.90;;;;;;5088986;28;20123;-72
2023/09/15 00:43:00;;;;;;;13.63;5.10;;;11.70;99.90;;;;;;5087664;28;20103;-73
2023/09/15 00:45:26;;;;;;;12.57;5.68;;;11.70;99.90;;;;;;5087705;28;20070;-72
2023/09/15 00:47:56;;;;;;;14.45;6.10;;;11.60;99.90;;;;;;5069830;28;20083;-72
2023/09/15 00:50:32;;;;;;;13.52;5.55;;;11.60;99.90;;;;;;5088177;28;20040;-72
2023/09/15 00:53:10;;;;;;;12.07;5.50;;;11.60;99.90;;;;;;5088767;28;20487;-73
2023/09/15 00:55:37;;;;;;;12.88;5.78;;;11.70;99.90;;;;;;5088735;28;20024;-72
2023/09/15 00:58:10;;;;;;;11.10;5.78;;;11.70;99.90;;;;;;5087525;28;20468;-72
2023/09/15 01:00:37;;;;;;;12.23;5.70;;;11.70;99.90;;;;;;5087472;28;20039;-72
2023/09/15 01:03:03;;;;;;;13.98;5.85;;;11.60;99.90;;;;;;5088545;28;20024;-72
2023/09/15 01:05:31;;;;;;;14.10;5.80;;;11.70;99.90;;;;;;5087131;28;20349;-72
2023/09/15 01:07:57;;;;;;;10.18;5.60;;;11.60;99.90;;;;;;5086188;28;20036;-73
2023/09/15 01:10:24;;;;;;;10.65;5.75;;;11.60;99.90;;;;;;5087572;28;20031;-73
2023/09/15 01:12:52;;;;;;;12.32;5.38;;;11.60;99.90;;;;;;5087380;28;20036;-73
2023/09/15 01:15:21;;;;;;;11.10;5.85;;;11.50;99.90;;;;;;5084090;28;20039;-73
2023/09/15 01:18:14;;;;;;;11.02;5.90;;;11.50;99.90;;;;;;5086857;28;20032;-73
2023/09/15 01:21:10;;;;;;;10.45;5.78;;;11.50;99.90;;;;;;5068877;28;20029;-73
2023/09/15 01:24:00;;;;;;;13.45;5.82;;;11.50;99.90;;;;;;5076170;28;20127;-73
2023/09/15 01:26:38;;;;;;;10.00;5.28;;;11.50;99.90;;;;;;5070043;28;20038;-73
2023/09/15 01:29:38;;;;;;;16.13;5.75;;;11.50;99.90;;;;;;5080852;28;20037;-73
2023/09/15 01:32:07;;;;;;;10.18;5.57;;;11.50;99.90;;;;;;5043640;28;20040;-73
2023/09/15 01:34:36;;;;;;;10.68;5.75;;;11.50;99.90;;;;;;5084155;28;20042;-73
2023/09/15 01:37:01;;;;;;;8.25;5.43;;;11.50;99.90;;;;;;5087381;28;20719;-73
2023/09/15 01:39:30;;;;;;;13.18;6.07;;;11.50;99.90;;;;;;5069215;28;20120;-73
2023/09/15 01:41:57;;;;;;;11.05;5.38;;;11.40;99.90;;;;;;5083191;28;20043;-73
2023/09/15 01:44:23;;;;;;;10.75;5.50;;;11.40;99.90;;;;;;5085423;28;20117;-73
2023/09/15 01:46:48;;;;;;;15.50;5.38;;;11.30;99.90;;;;;;5086521;28;20067;-73
2023/09/15 01:49:14;;;;;;;14.00;5.50;;;11.30;99.90;;;;;;5085877;28;20044;-72
2023/09/15 01:51:40;;;;;;;11.40;5.65;;;11.30;99.90;;;;;;5087685;28;20036;-72
2023/09/15 01:54:06;;;;;;;13.05;5.72;;;11.30;99.90;;;;;;5068151;28;20036;-72
2023/09/15 01:56:32;;;;;;;9.68;5.70;;;11.30;99.90;;;;;;5087967;28;20040;-72
2023/09/15 01:58:58;;;;;;;10.60;5.78;;;11.40;99.90;;;;;;5087272;28;20039;-72
2023/09/15 02:01:23;;;;;;;12.70;6.18;;;11.40;99.90;;;;;;5086070;28;20032;-72
2023/09/15 02:03:49;;;;;;;11.00;6.00;;;11.40;99.90;;;;;;5084428;28;20032;-72
2023/09/15 02:06:16;;;;;;;12.32;5.75;;;11.30;99.90;;;;;;5085301;28;20035;-72
2023/09/15 02:08:44;;;;;;;10.38;5.80;;;11.30;99.90;;;;;;5085919;28;20510;-72
2023/09/15 02:11:10;;;;;;;16.52;6.63;;;11.30;99.90;;;;;;5086239;28;20032;-72
2023/09/15 02:13:40;;;;;;;13.48;6.05;;;11.30;99.90;;;;;;5085909;28;20035;-72
2023/09/15 02:16:05;;;;;;;13.40;6.45;;;11.20;99.90;;;;;;5087737;28;20476;-72
2023/09/15 02:18:31;;;;;;;10.93;5.63;;;11.20;99.90;;;;;;5068678;28;20051;-72
2023/09/15 02:20:57;;;;;;;9.85;5.68;;;11.20;99.90;;;;;;5088250;28;20024;-72
2023/09/15 02:23:24;;;;;;;11.27;5.78;;;11.20;99.90;;;;;;5084000;28;20052;-72
2023/09/15 02:25:50;;;;;;;10.18;5.90;;;11.20;99.90;;;;;;5088171;28;20068;-72
2023/09/15 02:28:16;;;;;;;13.43;5.72;;;11.20;99.90;;;;;;5086504;28;20032;-72
2023/09/15 02:30:41;;;;;;;11.48;5.80;;;11.10;99.90;;;;;;5085982;28;20028;-72
2023/09/15 02:33:07;;;;;;;12.55;5.90;;;11.10;99.90;;;;;;5084716;28;20118;-72
2023/09/15 02:35:33;;;;;;;14.95;6.20;;;11.10;99.90;;;;;;5087222;28;20372;-72
2023/09/15 02:37:59;;;;;;;11.82;5.78;;;11.10;99.90;;;;;;5087405;28;20085;-72
2023/09/15 02:40:25;;;;;;;11.88;6.18;;;11.10;99.90;;;;;;5085067;28;20154;-72
2023/09/15 02:42:50;;;;;;;10.05;5.40;;;11.10;99.90;;;;;;5089525;28;20106;-72
2023/09/15 02:45:17;;;;;;;9.93;5.22;;;11.10;99.90;;;;;;5090407;28;20655;-72
2023/09/15 02:47:42;;;;;;;11.80;5.70;;;11.10;99.90;;;;;;5086846;28;20048;-72
2023/09/15 02:50:08;;;;;;;11.82;6.05;;;11.00;99.90;;;;;;5091563;28;20032;-72
2023/09/15 02:52:34;;;;;;;11.75;6.07;;;11.00;99.90;;;;;;5089223;28;20024;-73
2023/09/15 02:55:04;;;;;;;11.18;5.18;;;11.00;99.90;;;;;;5088730;28;20120;-72
2023/09/15 02:57:31;;;;;;;11.30;6.10;;;11.00;99.90;;;;;;5081739;28;20032;-71
2023/09/15 02:59:56;;;;;;;11.68;6.03;;;11.00;99.90;;;;;;5091750;28;20051;-73
2023/09/15 03:02:22;;;;;;;12.20;5.57;;;11.00;99.90;;;;;;5087579;28;20090;-72
2023/09/15 03:04:48;;;;;;;10.52;5.63;;;11.00;99.90;;;;;;5090591;28;20059;-72
2023/09/15 03:07:14;;;;;;;12.18;5.65;;;10.90;99.90;;;;;;5088257;28;20034;-72
2023/09/15 03:09:40;;;;;;;10.85;5.35;;;10.90;99.90;;;;;;5079954;28;20024;-73
2023/09/15 03:12:06;;;;;;;9.82;5.47;;;10.90;99.90;;;;;;5091545;28;20479;-73
2023/09/15 03:14:32;;;;;;;10.70;5.43;;;10.80;99.90;;;;;;5090297;28;20032;-71
2023/09/15 03:16:58;;;;;;;11.38;5.78;;;10.80;99.90;;;;;;5089525;28;20040;-72
2023/09/15 03:19:24;;;;;;;15.15;5.82;;;10.80;99.90;;;;;;5087050;28;20082;-72
2023/09/15 03:21:50;;;;;;;12.02;5.68;;;10.80;99.90;;;;;;5090232;28;20035;-73
2023/09/15 03:24:16;;;;;;;10.60;5.28;;;10.70;99.90;;;;;;5090504;28;20024;-73
2023/09/15 03:26:42;;;;;;;11.65;5.28;;;10.80;99.90;;;;;;5090354;28;20036;-73
2023/09/15 03:29:08;;;;;;;9.38;5.35;;;10.80;99.90;;;;;;5089832;28;20044;-72
2023/09/15 03:31:34;;;;;;;13.65;5.50;;;10.80;99.90;;;;;;5088547;28;20108;-73
2023/09/15 03:33:59;;;;;;;11.77;5.15;;;10.80;99.90;;;;;;5090184;28;20444;-72
2023/09/15 03:36:29;;;;;;;19.60;5.57;;;10.80;99.90;;;;;;5088868;28;20074;-72
2023/09/15 03:38:55;;;;;;;9.32;5.13;;;10.80;99.90;;;;;;5084745;28;20121;-72
2023/09/15 03:41:24;;;;;;;9.32;5.53;;;10.70;99.90;;;;;;5092383;28;20082;-72
2023/09/15 03:43:50;;;;;;;10.65;4.93;;;10.70;99.90;;;;;;5089057;28;20441;-73
2023/09/15 03:46:16;;;;;;;9.38;5.35;;;10.70;99.90;;;;;;5071993;28;20113;-72
2023/09/15 03:48:41;;;;;;;10.63;5.32;;;10.60;99.90;;;;;;5089030;28;20084;-72
2023/09/15 03:51:07;;;;;;;9.60;4.25;;;10.60;99.90;;;;;;5086749;28;20115;-71
2023/09/15 03:53:33;;;;;;;9.57;5.00;;;10.50;99.90;;;;;;5089265;28;20031;-72
2023/09/15 03:55:59;;;;;;;8.57;4.60;;;10.40;99.90;;;;;;5088092;28;20036;-73
2023/09/15 03:58:25;;;;;;;8.57;4.60;;;10.50;99.90;;;;;;5068443;28;20419;-73
2023/09/15 04:00:51;;;;;;;10.23;4.90;;;10.40;99.90;;;;;;5072134;28;20418;-71
2023/09/15 04:03:16;;;;;;;9.05;4.82;;;10.40;99.90;;;;;;5063323;28;20074;-72
2023/09/15 04:05:42;;;;;;;9.23;4.78;;;10.40;99.90;;;;;;5081405;28;20028;-73
2023/09/15 04:08:08;;;;;;;9.95;4.70;;;10.40;99.90;;;;;;5087690;28;20088;-74
2023/09/15 04:10:35;;;;;;;9.57;4.70;;;10.40;99.90;;;;;;5084858;28;20430;-71
2023/09/15 04:13:00;;;;;;;8.18;4.22;;;10.40;99.90;;;;;;5073371;28;20032;-72
2023/09/15 04:15:26;;;;;;;10.32;4.60;;;10.40;99.90;;;;;;5100439;28;20034;-72
2023/09/15 04:17:52;;;;;;;9.68;4.55;;;10.30;99.90;;;;;;5088514;28;20039;-73
2023/09/15 04:20:18;;;;;;;8.95;5.07;;;10.30;99.90;;;;;;5089195;28;20039;-72
2023/09/15 04:22:43;;;;;;;8.13;4.65;;;10.40;99.90;;;;;;5086337;28;20035;-73
2023/09/15 04:25:11;;;;;;;8.32;4.47;;;10.30;99.90;;;;;;5088678;28;20081;-73
2023/09/15 04:27:37;;;;;;;8.43;5.00;;;10.40;99.90;;;;;;5084408;28;20042;-71
2023/09/15 04:30:03;;;;;;;8.57;4.78;;;10.40;99.90;;;;;;5089161;28;20032;-72
2023/09/15 04:32:29;;;;;;;10.80;5.32;;;10.40;99.90;;;;;;5073330;28;20036;-71
2023/09/15 04:34:55;;;;;;;9.55;5.32;;;10.30;99.90;;;;;;5088396;28;20032;-72
2023/09/15 04:37:22;;;;;;;9.18;4.82;;;10.30;99.90;;;;;;5071376;28;20032;-70
2023/09/15 04:39:50;;;;;;;13.75;5.63;;;10.40;99.90;;;;;;5072453;28;20028;-70
2023/09/15 04:42:17;;;;;;;12.63;5.70;;;10.40;99.90;;;;;;5077732;28;20078;-69
2023/09/15 04:44:42;;;;;;;12.68;5.53;;;10.40;99.90;;;;;;5089603;28;20023;-70
2023/09/15 04:47:08;;;;;;;9.73;5.63;;;10.50;99.90;;;;;;5086999;28;20546;-71
2023/09/15 04:49:34;;;;;;;10.02;4.93;;;10.40;99.90;;;;;;5079216;28;20063;-69
2023/09/15 04:52:00;;;;;;;8.88;4.63;;;10.30;99.90;;;;;;5082967;28;20078;-71
2023/09/15 04:54:26;;;;;;;9.07;5.30;;;10.30;99.90;;;;;;5084364;28;20062;-71
2023/09/15 04:56:52;;;;;;;7.97;4.43;;;10.30;99.90;;;;;;5080952;28;20032;-72
2023/09/15 04:59:19;;;;;;;10.95;4.40;;;10.30;99.90;;;;;;5087388;28;20031;-73
2023/09/15 05:01:46;;;;;;;13.50;4.72;;;10.20;99.90;;;;;;5086360;28;20108;-74
2023/09/15 05:04:15;;;;;;;8.13;4.20;;;10.20;99.90;;;;;;5086174;28;20032;-72
2023/09/15 05:06:41;;;;;;;8.75;4.72;;;10.20;99.90;;;;;;5087132;28;20032;-74
2023/09/15 05:09:10;;;;;;;10.73;5.05;;;10.20;99.90;;;;;;5083376;28;20067;-74
2023/09/15 05:11:39;;;;;;;7.97;4.78;;;10.20;99.90;;;;;;5082347;28;20199;-73
2023/09/15 05:14:05;;;;;;;9.35;4.90;;;10.10;99.90;;;;;;5087432;28;20028;-73
2023/09/15 05:16:31;;;;;;;8.05;4.82;;;10.10;99.90;;;;;;5086104;28;20040;-74
2023/09/15 05:18:57;;;;;;;9.80;4.22;;;10.10;99.90;;;;;;5087432;28;20103;-73
2023/09/15 05:21:22;;;;;;;9.68;4.60;;;10.10;99.90;;;;;;5087600;28;20059;-75
2023/09/15 05:23:48;;;;;;;8.13;4.40;;;10.10;99.90;;;;;;5089027;28;20028;-74
2023/09/15 05:26:14;;;;;;;10.50;4.95;;;10.10;99.90;;;;;;5086664;28;20031;-71
2023/09/15 05:28:39;;;;;;;8.18;4.65;;;10.20;99.90;;;;;;5088416;28;20036;-72
2023/09/15 05:31:07;;;;;;;9.60;4.72;;;10.10;99.90;;;;;;5088848;28;20075;-72
2023/09/15 05:33:33;;;;;;;11.15;4.85;;;10.20;99.90;;;;;;5083784;28;20646;-71
2023/09/15 05:35:59;;;;;;;9.82;5.15;;;10.30;99.90;;;;;;5087086;28;20103;-71
2023/09/15 05:38:25;;;;;;;11.05;5.40;;;10.40;99.90;;;;;;5087467;28;20385;-71
2023/09/15 05:40:51;;;;;;;11.23;5.85;;;10.50;99.90;;;;;;5085424;28;20484;-70
2023/09/15 05:43:18;;;;;;;9.57;5.88;;;10.70;99.90;;;;;;5083227;28;20040;-72
2023/09/15 05:45:44;;;;;;;9.02;4.82;;;10.80;99.90;;;;;;5069584;28;20063;-72
2023/09/15 05:48:12;;;;;;;9.25;5.10;;;10.80;99.90;;;;;;5088220;28;20056;-72
2023/09/15 05:50:41;;;;;;;11.93;4.88;;;10.70;99.90;;;;;;5085820;28;20028;-72
2023/09/15 05:53:07;;;;;;;12.43;5.30;;;10.80;99.90;;;;;;5088806;28;20028;-72
2023/09/15 05:55:32;;;;;;;10.57;5.88;;;10.80;99.90;;;;;;5084615;28;20100;-73
2023/09/15 05:57:58;;;;;;;13.15;6.85;;;10.90;99.90;;;;;;5088438;28;20036;-72
2023/09/15 06:00:24;;;;;;;11.48;6.50;;;11.00;99.90;;;;;;5085629;28;20036;-72
2023/09/15 06:02:50;;;;;;;11.93;5.65;;;11.10;99.90;;;;;;5085354;28;20081;-70
2023/09/15 06:05:19;;;;;;;12.70;5.30;;;11.20;99.90;;;;;;5086302;28;20032;-71
2023/09/15 06:07:54;;;;;;;11.15;5.32;;;11.20;99.90;;;;;;5088034;28;20369;-71
2023/09/15 06:10:20;;;;;;;11.75;5.88;;;11.30;99.90;;;;;;5086689;28;20499;-71
2023/09/15 06:12:50;;;;;;;10.15;5.20;;;11.40;99.90;;;;;;5088024;28;20532;-71
2023/09/15 06:15:16;;;;;;;11.02;6.32;;;11.50;99.90;;;;;;5087531;28;20047;-71
2023/09/15 06:17:41;;;;;;;10.35;6.15;;;11.60;99.90;;;;;;5089079;28;20032;-72
2023/09/15 06:20:08;;;;;;;11.00;4.80;;;11.70;99.90;;;;;;5089425;28;20036;-72
2023/09/15 06:22:34;;;;;;;12.90;5.30;;;11.70;99.90;;;;;;5089868;28;20407;-72
2023/09/15 06:25:00;;;;;;;12.13;5.70;;;11.70;99.90;;;;;;5092436;28;20024;-71
2023/09/15 06:27:25;;;;;;;13.77;5.40;;;11.70;99.90;;;;;;5091243;28;20038;-70
2023/09/15 06:29:55;;;;;;;10.90;5.38;;;11.80;99.90;;;;;;5091253;28;20114;-71
2023/09/15 06:32:21;;;;;;;10.98;5.97;;;11.90;99.90;;;;;;5091607;28;20472;-71
2023/09/15 06:34:46;;;;;;;13.90;6.20;;;12.10;99.90;;;;;;5092079;28;20028;-70
2023/09/15 06:37:12;;;;;;;12.32;6.50;;;12.20;99.90;;;;;;5089974;28;20161;-71
2023/09/15 06:39:38;;;;;;;16.02;6.90;;;12.40;99.90;;;;;;5090392;28;20618;-69
2023/09/15 06:42:08;;;;;;;12.77;5.45;;;12.60;99.90;;;;;;5091813;28;20030;-69
2023/09/15 06:44:34;;;;;;;;;;;12.70;99.90;;;;;;5090723;28;20111;-72
2023/09/15 06:47:00;;;;;;;9.55;5.40;;;12.80;99.90;;;;;;5090519;28;19920;-71
2023/09/15 06:49:26;;;;;;;19.90;6.10;;;12.80;99.90;;;;;;5088019;28;20528;-71
2023/09/15 06:51:53;;;;;;;11.52;5.90;;;12.90;99.90;;;;;;5091269;28;20115;-70
2023/09/15 06:54:19;;;;;;;15.43;6.40;;;13.00;99.90;;;;;;5090996;28;20031;-71
2023/09/15 06:56:45;;;;;;;14.50;5.93;;;13.10;99.90;;;;;;5090286;28;20103;-71
2023/09/15 06:59:11;;;;;;;15.05;6.40;;;13.00;99.90;;;;;;5090623;28;20476;-71
2023/09/15 07:01:39;;;;;;;15.43;6.57;;;13.10;99.90;;;;;;5089830;28;20075;-72
2023/09/15 07:04:06;;;;;;;14.77;6.88;;;13.20;99.90;;;;;;5090621;28;20032;-72
2023/09/15 07:06:32;;;;;;;12.48;7.22;;;13.50;99.90;;;;;;5090805;28;20075;-72
2023/09/15 07:08:58;;;;;;;17.77;8.35;;;13.70;99.90;;;;;;5091332;28;20054;-69
2023/09/15 07:11:24;;;;;;;18.77;9.82;;;13.80;99.90;;;;;;5089179;28;20460;-71
2023/09/15 07:13:49;;;;;;;19.23;10.18;;;14.10;99.90;;;;;;5091845;28;20035;-71
2023/09/15 07:16:15;;;;;;;19.55;10.27;;;14.50;99.90;;;;;;5090097;28;20032;-71
2023/09/15 07:18:41;;;;;;;18.10;10.18;;;14.80;99.90;;;;;;5072683;28;20031;-71
2023/09/15 07:21:06;;;;;;;15.30;8.32;;;15.10;99.90;;;;;;5088705;28;20043;-71
2023/09/15 07:23:32;;;;;;;18.08;9.50;;;15.30;99.90;;;;;;5090873;28;20047;-70
2023/09/15 07:25:59;;;;;;;17.42;8.48;;;15.50;99.90;;;;;;5090328;28;20463;-71
2023/09/15 07:28:24;;;;;;;22.15;10.00;;;15.70;99.90;;;;;;5087035;28;20028;-72
2023/09/15 07:30:50;;;;;;;17.65;9.00;;;15.80;99.90;;;;;;5090297;28;20038;-70
2023/09/15 07:33:16;;;;;;;21.00;10.63;;;15.90;99.90;;;;;;5072822;28;20032;-71
2023/09/15 07:35:42;;;;;;;19.48;10.23;;;16.10;99.90;;;;;;5090222;28;20020;-71
2023/09/15 07:38:08;;;;;;;19.75;10.93;;;16.10;99.90;;;;;;5090648;28;20398;-71
2023/09/15 07:40:33;;;;;;;21.92;10.63;;;16.30;99.90;;;;;;5088235;28;20032;-71
2023/09/15 07:42:59;;;;;;;18.92;9.88;;;16.30;99.90;;;;;;5089094;28;20067;-72
2023/09/15 07:45:26;;;;;;;19.63;10.27;;;16.50;99.90;;;;;;5088407;28;20078;-72
2023/09/15 07:47:52;;;;;;;22.02;10.95;;;16.60;99.90;;;;;;5086136;28;20043;-69
2023/09/15 07:50:18;;;;;;;19.88;10.15;;;16.70;99.90;;;;;;5088774;28;20681;-69
2023/09/15 07:52:45;;;;;;;19.52;10.57;;;16.90;99.90;;;;;;5089946;28;20645;-71
2023/09/15 07:55:11;;;;;;;18.48;10.85;;;17.00;99.90;;;;;;5089952;28;20409;-70
2023/09/15 07:57:37;;;;;;;22.70;12.25;;;17.20;99.90;;;;;;5088555;28;20036;-70
2023/09/15 08:00:06;;;;;;;24.83;12.38;;;17.20;99.90;;;;;;5088453;28;20032;-71
2023/09/15 08:02:32;;;;;;;23.13;12.02;;;17.30;99.90;;;;;;5090020;28;20123;-71
2023/09/15 08:04:58;;;;;;;20.88;12.43;;;17.20;99.90;;;;;;5088885;28;20111;-71
2023/09/15 08:07:23;;;;;;;23.13;12.98;;;17.30;99.90;;;;;;5087489;28;20477;-70
2023/09/15 08:09:49;;;;;;;22.95;11.95;;;17.40;99.90;;;;;;5083500;28;20032;-71
2023/09/15 08:12:19;;;;;;;21.02;11.93;;;17.50;99.90;;;;;;5089470;28;20345;-72
2023/09/15 08:14:45;;;;;;;25.55;12.63;;;17.50;99.90;;;;;;5088246;28;20178;-72
2023/09/15 08:17:12;;;;;;;27.48;13.02;;;17.60;99.90;;;;;;5090241;28;20075;-71
2023/09/15 08:19:38;;;;;;;23.02;12.77;;;17.80;99.90;;;;;;5088150;28;20032;-70
2023/09/15 08:22:05;;;;;;;24.75;13.57;;;17.90;99.90;;;;;;5090166;28;20082;-71
2023/09/15 08:24:31;;;;;;;22.88;12.55;;;18.00;99.90;;;;;;5088903;28;20407;-71
2023/09/15 08:26:56;;;;;;;22.92;13.25;;;18.10;99.90;;;;;;5064208;28;20055;-73
2023/09/15 08:29:22;;;;;;;20.83;10.85;;;18.20;99.90;;;;;;5086648;28;20032;-72
2023/09/15 08:31:48;;;;;;;19.10;11.50;;;18.40;99.90;;;;;;5088849;28;20872;-72
2023/09/15 08:34:13;;;;;;;21.73;12.55;;;18.60;99.90;;;;;;5088728;28;20028;-73
2023/09/15 08:36:39;;;;;;;23.48;12.77;;;18.60;99.90;;;;;;5089076;28;20111;-72
2023/09/15 08:39:05;;;;;;;22.73;12.40;;;18.70;99.90;;;;;;5087737;28;20040;-74
2023/09/15 08:41:47;;;;;;;21.60;12.52;;;18.80;99.90;;;;;;5086100;28;20032;-71
2023/09/15 08:44:16;;;;;;;23.17;13.13;;;19.00;99.90;;;;;;5089478;28;20035;-73
2023/09/15 08:46:43;;;;;;;24.08;13.45;;;19.10;99.90;;;;;;5088550;28;20059;-71
2023/09/15 08:49:09;;;;;;;23.58;12.30;;;19.20;99.90;;;;;;5088074;28;20084;-72
2023/09/15 08:51:39;;;;;;;22.05;12.93;;;19.30;99.90;;;;;;5086525;28;20020;-71
2023/09/15 08:54:06;;;;;;;24.08;12.98;;;19.40;99.90;;;;;;5087688;28;20039;-70
2023/09/15 08:56:33;;;;;;;20.45;11.60;;;19.60;99.90;;;;;;5086979;28;20123;-70
2023/09/15 08:59:00;;;;;;;24.63;12.90;;;19.80;99.90;;;;;;5089228;28;20477;-71
2023/09/15 09:01:26;;;;;;;25.13;13.93;;;20.00;99.90;;;;;;5086737;28;20528;-72
2023/09/15 09:03:51;;;;;;;22.65;13.45;;;20.00;99.90;;;;;;5088393;28;20035;-73
2023/09/15 09:06:18;;;;;;;22.80;12.90;;;20.00;99.90;;;;;;5086785;28;20741;-72
2023/09/15 09:08:46;;;;;;;20.92;11.95;;;20.10;99.90;;;;;;5087633;28;20217;-72
2023/09/15 09:11:13;;;;;;;25.55;13.35;;;20.30;99.90;;;;;;5089030;28;20028;-71
2023/09/15 09:13:39;;;;;;;24.42;11.93;;;20.30;99.90;;;;;;5087292;28;20031;-72
2023/09/15 09:16:07;;;;;;;24.48;12.13;;;20.60;99.90;;;;;;5088242;28;20044;-71
2023/09/15 09:18:34;;;;;;;21.85;11.15;;;20.80;99.90;;;;;;5068059;28;20036;-71
2023/09/15 09:21:05;;;;;;;21.35;11.95;;;21.00;99.90;;;;;;5088863;28;20080;-71
2023/09/15 09:23:30;;;;;;;24.77;12.93;;;21.10;99.90;;;;;;5070276;28;20024;-71
2023/09/15 09:26:09;;;;;;;28.30;12.77;;;20.90;99.90;;;;;;5087864;28;20963;-70
2023/09/15 09:28:36;;;;;;;20.83;11.25;;;20.90;99.90;;;;;;5087209;28;20028;-72
2023/09/15 09:31:01;;;;;;;21.77;11.43;;;21.10;99.90;;;;;;5087059;28;20039;-71
2023/09/15 09:33:27;;;;;;;20.38;11.32;;;21.20;99.90;;;;;;5087977;28;20016;-71
2023/09/15 09:35:53;;;;;;;23.52;11.93;;;21.50;99.90;;;;;;5060201;28;20036;-72
2023/09/15 09:38:19;;;;;;;21.50;11.77;;;21.70;99.90;;;;;;5068584;28;20028;-71
2023/09/15 09:40:45;;;;;;;21.63;10.57;;;21.70;99.90;;;;;;5086098;28;20028;-71
2023/09/15 09:43:15;;;;;;;21.30;10.32;;;21.70;99.90;;;;;;5088585;28;20039;-71
2023/09/15 09:45:41;;;;;;;22.25;10.45;;;21.90;99.90;;;;;;5087822;28;20427;-72
2023/09/15 09:48:07;;;;;;;23.17;10.95;;;22.00;99.90;;;;;;5088753;28;20056;-70
2023/09/15 09:50:34;;;;;;;18.80;10.60;;;22.10;99.90;;;;;;5082393;28;20035;-70
2023/09/15 09:53:07;;;;;;;18.90;10.10;;;22.20;99.90;;;;;;5086239;28;20127;-71
2023/09/15 09:55:33;;;;;;;21.67;10.75;;;22.40;99.90;;;;;;5084364;28;20028;-70
2023/09/15 09:58:05;;;;;;;19.55;10.82;;;22.40;99.90;;;;;;5087592;28;20426;-70
2023/09/15 10:00:33;;;;;;;16.70;10.82;;;22.40;99.90;;;;;;5086607;28;20024;-71
2023/09/15 10:02:59;;;;;;;19.55;11.30;;;22.30;99.90;;;;;;5087500;28;20024;-71
2023/09/15 10:05:26;;;;;;;21.95;11.73;;;22.40;99.90;;;;;;5085941;28;20036;-71
2023/09/15 10:07:52;;;;;;;19.38;10.38;;;22.50;99.90;;;;;;5087634;28;20063;-70
2023/09/15 10:10:19;;;;;;;22.40;11.77;;;22.50;99.90;;;;;;5087576;28;20032;-70
2023/09/15 10:12:45;;;;;;;20.20;11.43;;;22.60;99.90;;;;;;5087729;28;20043;-70
2023/09/15 10:15:11;;;;;;;19.75;10.70;;;22.50;99.90;;;;;;5086407;28;20111;-70
2023/09/15 10:17:37;;;;;;;17.48;10.75;;;22.50;99.90;;;;;;5083068;28;20178;-70
2023/09/15 10:20:04;;;;;;;21.70;11.82;;;22.60;99.90;;;;;;5086268;28;20396;-71
2023/09/15 10:22:30;;;;;;;21.48;10.45;;;22.90;99.90;;;;;;5087405;28;20039;-70
2023/09/15 10:25:00;;;;;;;20.02;11.63;;;23.00;99.90;;;;;;5084972;28;20032;-72
2023/09/15 10:27:29;;;;;;;17.88;10.00;;;23.00;99.90;;;;;;5088079;28;20044;-70
2023/09/15 10:30:02;;;;;;;16.50;9.07;;;23.10;99.90;;;;;;5087584;28;20038;-72
2023/09/15 10:32:36;;;;;;;17.30;9.32;;;23.30;99.90;;;;;;5088317;28;20059;-72
2023/09/15 10:35:01;;;;;;;14.15;8.68;;;23.50;99.90;;;;;;5086602;28;20067;-71
2023/09/15 10:37:28;;;;;;;10.93;6.45;;;23.50;99.90;;;;;;5086873;28;20023;-71
2023/09/15 10:39:59;;;;;;;13.85;6.90;;;23.60;99.90;;;;;;5086861;28;20020;-72
2023/09/15 10:42:24;;;;;;;10.63;7.20;;;23.70;99.90;;;;;;5086795;28;20419;-72
2023/09/15 10:44:50;;;;;;;13.00;8.32;;;23.80;99.90;;;;;;5087391;28;20062;-72
2023/09/15 10:47:17;;;;;;;14.20;9.07;;;23.90;99.90;;;;;;5082119;28;20140;-72
2023/09/15 10:49:53;;;;;;;13.77;8.07;;;23.90;99.90;;;;;;5085611;28;20491;-72
2023/09/15 10:52:34;;;;;;;8.77;5.72;;;24.00;99.90;;;;;;5078136;28;20036;-72
2023/09/15 10:55:00;;;;;;;8.90;5.78;;;24.00;99.90;;;;;;5085760;28;20043;-72
2023/09/15 10:57:26;;;;;;;11.43;6.70;;;24.00;99.90;;;;;;5084558;28;20472;-72
2023/09/15 10:59:55;;;;;;;10.75;6.68;;;23.80;99.90;;;;;;5085830;28;20476;-70
2023/09/15 11:02:21;;;;;;;12.18;6.70;;;23.80;99.90;;;;;;5084274;28;20039;-71
2023/09/15 11:04:48;;;;;;;10.38;7.18;;;23.80;99.90;;;;;;5086446;28;20028;-71
2023/09/15 11:07:19;;;;;;;17.27;7.22;;;23.80;99.90;;;;;;5083789;28;20051;-71
2023/09/15 11:09:45;;;;;;;13.30;6.90;;;24.00;99.90;;;;;;5091384;28;20140;-70
2023/09/15 11:12:14;;;;;;;11.82;6.88;;;24.10;99.90;;;;;;5079042;28;20448;-72
2023/09/15 11:14:39;;;;;;;10.88;6.70;;;24.10;99.90;;;;;;5075535;28;20031;-71
2023/09/15 11:17:05;;;;;;;7.93;5.50;;;24.30;99.90;;;;;;5084736;28;20036;-72
2023/09/15 11:19:33;;;;;;;8.35;6.07;;;24.30;99.90;;;;;;5089273;28;20039;-71
2023/09/15 11:22:06;;;;;;;8.18;5.47;;;24.50;99.90;;;;;;5085811;28;20020;-72
2023/09/15 11:24:33;;;;;;;11.45;5.55;;;24.50;99.90;;;;;;5091478;28;20032;-71
2023/09/15 11:27:00;;;;;;;10.95;5.70;;;24.40;99.90;;;;;;5084147;28;20043;-71
2023/09/15 11:29:29;;;;;;;7.70;5.45;;;24.60;99.90;;;;;;5071678;28;20036;-70
2023/09/15 11:31:56;;;;;;;7.85;5.38;;;24.60;99.90;;;;;;5089003;28;20027;-71
2023/09/15 11:34:22;;;;;;;8.80;5.90;;;24.40;99.90;;;;;;5091122;28;20040;-71
2023/09/15 11:36:50;;;;;;;9.40;5.63;;;24.60;99.90;;;;;;5085045;28;20431;-71
2023/09/15 11:39:16;;;;;;;8.40;5.72;;;25.00;99.90;;;;;;5088258;28;20016;-71
2023/09/15 11:42:16;;;;;;;9.93;6.05;;;25.10;99.90;;;;;;5083867;28;20043;-71
2023/09/15 11:44:35;;;;;;;8.63;5.90;;;24.80;99.90;;;;;;5075967;28;20043;-72
2023/09/15 11:47:02;;;;;;;13.27;5.88;;;24.80;99.90;;;;;;5080943;28;20028;-71
2023/09/15 11:49:29;;;;;;;9.30;5.68;;;24.70;99.90;;;;;;5088496;28;20032;-71
2023/09/15 11:51:57;;;;;;;8.35;5.60;;;24.80;99.90;;;;;;5087537;28;20752;-72
2023/09/15 11:54:24;;;;;;;6.90;5.15;;;24.40;99.90;;;;;;5088926;28;20028;-71
2023/09/15 11:56:50;;;;;;;8.43;5.78;;;24.60;99.90;;;;;;5082301;28;20060;-71
2023/09/15 11:59:16;;;;;;;9.82;5.55;;;24.80;99.90;;;;;;5088179;28;20565;-71
2023/09/15 12:01:42;;;;;;;7.50;5.20;;;25.10;99.90;;;;;;5066690;28;20115;-71
2023/09/15 12:04:09;;;;;;;7.43;5.60;;;25.40;99.90;;;;;;5090663;28;20552;-71
2023/09/15 12:06:35;;;;;;;9.90;5.88;;;25.40;99.90;;;;;;5088785;28;20016;-72
2023/09/15 12:09:01;;;;;;;7.68;5.47;;;25.60;99.90;;;;;;5089808;28;20043;-71
2023/09/15 12:11:26;;;;;;;6.65;4.95;;;25.60;99.90;;;;;;5087844;28;20468;-71
2023/09/15 12:13:52;;;;;;;7.13;5.22;;;25.40;99.90;;;;;;5075963;28;20040;-71
2023/09/15 12:16:21;;;;;;;9.52;5.53;;;25.60;99.90;;;;;;5076188;28;20043;-73
2023/09/15 12:18:49;;;;;;;10.10;5.60;;;25.80;99.90;;;;;;5088605;28;20085;-71
2023/09/15 12:21:15;;;;;;;8.02;4.80;;;26.10;99.90;;;;;;5090123;28;20081;-71
2023/09/15 12:23:42;;;;;;;7.20;4.97;;;26.30;99.70;;;;;;5082596;28;20035;-72
2023/09/15 12:26:08;;;;;;;10.07;5.53;;;26.50;99.90;;;;;;5082960;28;20071;-71
2023/09/15 12:28:37;;;;;;;11.38;5.78;;;26.60;98.50;;;;;;5083655;28;20029;-72
2023/09/15 12:31:04;;;;;;;7.05;5.18;;;26.60;98.00;;;;;;5069219;28;20061;-71
2023/09/15 12:33:29;;;;;;;9.73;4.68;;;26.60;97.70;;;;;;5083709;28;20031;-72
2023/09/15 12:35:56;;;;;;;6.68;4.90;;;26.50;98.30;;;;;;5088978;28;20024;-72
2023/09/15 12:38:22;;;;;;;8.18;5.60;;;26.60;97.80;;;;;;5087725;28;20036;-72